Time;durP1;ratioP1;P1;durP2;ratioP2;P2;SDS_P1;SDS_P2;PMS_P1;PMS_P2;Temp;Humidity;BMP_temperature;BMP_pressure;BME280_temperature;BME280_humidity;BME280_pressure;Samples;Min_cycle;Max_cycle;Signal;HPM_P1;HPM_P2
2022/12/01 00:02:00;;;;;;;;;44.00;33.00;;;;;10.97;66.94;102194.25;4994192;28;46309;-69
2022/12/01 00:04:25;;;;;;;;;45.25;38.75;;;;;10.87;67.85;102174.19;4994365;28;45411;-69
2022/12/01 00:06:50;;;;;;;;;42.25;37.00;;;;;11.03;67.21;102190.50;4994086;28;45415;-69
2022/12/01 00:12:00;;;;;;;;;47.00;39.25;;;;;10.75;67.87;102187.06;4994193;28;45757;-70
2022/12/01 00:14:25;;;;;;;;;46.50;38.25;;;;;10.63;68.47;102170.66;4969338;28;45580;-69
2022/12/01 00:16:50;;;;;;;;;40.50;34.25;;;;;10.21;68.58;102129.44;4992249;28;45715;-70
2022/12/01 00:19:16;;;;;;;;;35.50;34.00;;;;;10.57;68.52;102177.09;4994250;28;45478;-70
2022/12/01 00:21:42;;;;;;;;;46.50;39.00;;;;;10.55;68.63;102182.47;4993855;28;45458;-69
2022/12/01 00:24:08;;;;;;;;;47.25;38.00;;;;;10.51;68.65;102177.28;4994196;28;45443;-71
2022/12/01 00:26:36;;;;;;;;;49.25;40.50;;;;;10.36;68.99;102182.25;4994266;28;45449;-71
2022/12/01 00:29:01;;;;;;;;;44.75;39.50;;;;;10.43;68.70;102188.22;4993880;28;45291;-68
2022/12/01 00:31:27;;;;;;;;;42.50;34.50;;;;;10.47;68.75;102192.53;4987554;28;47362;-69
2022/12/01 00:33:52;;;;;;;;;57.00;44.25;;;;;10.02;69.21;102159.41;4981842;28;45717;-69
2022/12/01 00:36:18;;;;;;;;;41.25;35.50;;;;;10.05;68.87;102156.63;4974185;28;45272;-71
2022/12/01 00:38:44;;;;;;;;;52.25;39.25;;;;;10.12;69.09;102156.41;4989378;28;45368;-71
2022/12/01 00:41:10;;;;;;;;;38.50;34.25;;;;;10.15;69.06;102186.53;4993875;28;46565;-71
2022/12/01 00:43:35;;;;;;;;;46.75;36.75;;;;;9.98;69.71;102188.88;4993768;28;45412;-70
2022/12/01 00:46:00;;;;;;;;;44.00;35.50;;;;;10.13;69.24;102192.81;4993975;28;45383;-71
2022/12/01 00:48:26;;;;;;;;;55.50;42.75;;;;;9.84;69.04;102152.00;4993824;28;45404;-71
2022/12/01 00:50:53;;;;;;;;;45.00;39.25;;;;;10.29;68.86;102185.16;4975953;28;45544;-71
2022/12/01 00:53:19;;;;;;;;;48.00;40.50;;;;;10.06;67.99;102186.84;4993811;28;45363;-71
2022/12/01 00:55:44;;;;;;;;;57.50;43.00;;;;;10.09;68.66;102187.59;4993659;28;45424;-71
2022/12/01 00:58:10;;;;;;;;;39.00;35.50;;;;;10.20;68.37;102186.34;4976217;28;45842;-71
2022/12/01 01:00:37;;;;;;;;;53.00;41.00;;;;;10.10;68.97;102184.00;4993587;28;45699;-71
2022/12/01 01:03:04;;;;;;;;;42.50;35.50;;;;;10.10;69.10;102183.13;4981247;28;45469;-70
2022/12/01 01:05:30;;;;;;;;;47.25;38.50;;;;;9.97;68.79;102164.00;4993046;28;45695;-71
2022/12/01 01:07:55;;;;;;;;;44.75;37.25;;;;;9.90;68.70;102123.34;4997064;28;45513;-71
2022/12/01 01:10:22;;;;;;;;;49.00;38.75;;;;;10.28;68.07;102186.94;4996508;28;45450;-71
2022/12/01 01:12:47;;;;;;;;;42.25;37.50;;;;;10.20;68.01;102183.69;4979466;28;45542;-71
2022/12/01 01:15:13;;;;;;;;;47.50;40.25;;;;;10.14;67.90;102151.91;4997337;28;45443;-71
2022/12/01 01:17:38;;;;;;;;;47.50;38.75;;;;;10.43;67.69;102180.22;4997641;28;45502;-70
2022/12/01 01:20:05;;;;;;;;;48.00;39.75;;;;;10.47;67.07;102176.53;4995830;28;47842;-71
2022/12/01 01:22:31;;;;;;;;;43.25;38.00;;;;;9.91;66.82;102081.59;4997000;28;45720;-71
2022/12/01 01:24:56;;;;;;;;;51.25;39.50;;;;;10.59;66.94;102191.22;4996742;28;45314;-71
2022/12/01 01:27:21;;;;;;;;;46.75;36.25;;;;;10.56;66.29;102183.34;4997103;28;45415;-71
2022/12/01 01:29:47;;;;;;;;;43.75;38.00;;;;;10.61;66.11;102186.72;4979747;28;46666;-71
2022/12/01 01:32:12;;;;;;;;;47.00;39.25;;;;;10.64;66.13;102193.75;4997276;28;45292;-72
2022/12/01 01:34:37;;;;;;;;;50.50;40.00;;;;;10.64;65.44;102196.41;4997500;28;45292;-71
2022/12/01 01:37:03;;;;;;;;;41.50;36.00;;;;;10.64;65.27;102197.28;4996730;28;45618;-70
2022/12/01 01:39:28;;;;;;;;;43.00;36.75;;;;;10.62;65.34;102207.13;4996989;28;45351;-71
2022/12/01 01:41:54;;;;;;;;;42.75;36.75;;;;;10.57;65.64;102204.63;4996431;28;45355;-70
2022/12/01 01:44:44;;;;;;;;;45.00;37.00;;;;;10.28;66.50;102213.63;4996596;28;45434;-70
2022/12/01 01:47:09;;;;;;;;;47.50;38.00;;;;;10.37;66.49;102208.00;4996625;28;45340;-71
2022/12/01 01:49:35;;;;;;;;;44.25;37.50;;;;;10.04;67.15;102207.31;4978624;28;46130;-68
2022/12/01 01:52:03;;;;;;;;;38.50;31.75;;;;;10.01;67.20;102215.44;4978881;28;45381;-68
2022/12/01 01:54:51;;;;;;;;;41.75;32.50;;;;;10.06;67.03;102213.50;4996437;28;45423;-71
2022/12/01 01:57:23;;;;;;;;;39.00;36.25;;;;;10.04;67.03;102204.66;4996347;28;45778;-70
2022/12/01 01:59:54;;;;;;;;;40.75;35.00;;;;;10.16;66.42;102214.03;4987833;28;45377;-71
2022/12/01 02:02:19;;;;;;;;;36.50;31.25;;;;;9.60;66.78;102119.97;4981851;28;45305;-70
2022/12/01 02:04:50;;;;;;;;;41.25;37.50;;;;;9.75;66.53;102137.22;4976419;28;45547;-70
2022/12/01 02:07:17;;;;;;;;;39.25;35.00;;;;;10.20;66.32;102197.00;4976519;28;45679;-71
2022/12/01 02:09:43;;;;;;;;;43.75;34.75;;;;;10.25;65.66;102184.41;4976094;28;47036;-70
2022/12/01 02:12:39;;;;;;;;;36.75;33.50;;;;;10.39;66.31;102197.28;4976325;28;45439;-71
2022/12/01 02:15:18;;;;;;;;;32.00;29.75;;;;;10.31;65.03;102200.19;4976440;28;45344;-71
2022/12/01 02:18:04;;;;;;;;;39.00;32.50;;;;;10.07;66.14;102199.25;4976384;28;45345;-71
2022/12/01 02:20:40;;;;;;;;;39.75;34.50;;;;;10.19;66.03;102201.50;4974638;28;46373;-70
2022/12/01 02:23:50;;;;;;;;;53.00;40.00;;;;;10.14;66.10;102200.78;4990913;28;45662;-70
2022/12/01 02:26:38;;;;;;;;;45.00;35.50;;;;;10.15;66.36;102202.53;4990787;28;45558;-70
2022/12/01 02:29:40;;;;;;;;;45.25;39.75;;;;;9.76;67.33;102209.13;4978127;28;45594;-71
2022/12/01 02:32:26;;;;;;;;;52.00;41.75;;;;;9.73;67.61;102208.34;4995667;28;46106;-70
2022/12/01 02:35:13;;;;;;;;;42.50;36.00;;;;;9.85;67.32;102212.41;4977992;28;45536;-71
2022/12/01 02:37:58;;;;;;;;;47.75;37.50;;;;;10.12;66.33;102209.75;4995549;28;45372;-70
2022/12/01 02:40:38;;;;;;;;;43.00;36.75;;;;;9.70;66.71;102148.00;4995340;28;45281;-70
2022/12/01 02:43:09;;;;;;;;;42.00;36.25;;;;;10.25;66.28;102203.06;4995236;28;46733;-71
2022/12/01 02:45:53;;;;;;;;;40.00;32.75;;;;;10.18;66.74;102210.41;4995177;28;45350;-71
2022/12/01 02:48:26;;;;;;;;;47.75;40.25;;;;;10.45;66.63;102194.41;4995585;28;45447;-70
2022/12/01 02:50:54;;;;;;;;;45.25;37.50;;;;;10.59;66.01;102191.22;4995312;28;45455;-70
2022/12/01 02:53:19;;;;;;;;;39.75;36.50;;;;;10.33;66.00;102125.47;4995180;28;45692;-71
2022/12/01 02:55:52;;;;;;;;;39.50;35.25;;;;;10.75;65.64;102191.53;4994535;28;45402;-71
2022/12/01 02:58:18;;;;;;;;;40.75;36.50;;;;;10.75;65.81;102181.72;4995463;28;45312;-70
2022/12/01 03:01:00;;;;;;;;;48.50;38.00;;;;;10.77;65.16;102185.22;4995064;28;45388;-70
2022/12/01 03:04:13;;;;;;;;;34.75;34.50;;;;;10.76;65.05;102178.13;4994997;28;45434;-71
2022/12/01 03:07:00;;;;;;;;;41.25;36.75;;;;;10.80;64.88;102183.34;4895320;29;45721;-71
2022/12/01 03:09:46;;;;;;;;;42.00;34.50;;;;;10.82;64.79;102181.50;4895713;29;45435;-70
2022/12/01 03:12:20;;;;;;;;;41.75;35.00;;;;;10.73;64.93;102185.38;4879982;29;45539;-71
2022/12/01 03:15:15;;;;;;;;;40.00;35.75;;;;;10.79;64.88;102184.28;4895806;29;46474;-71
2022/12/01 03:18:10;;;;;;;;;40.00;35.00;;;;;10.75;64.92;102175.53;4896074;29;45554;-71
2022/12/01 03:21:00;;;;;;;;;45.00;38.75;;;;;10.75;64.43;102175.53;4839894;29;45438;-71
2022/12/01 03:23:31;;;;;;;;;39.00;35.00;;;;;10.72;64.51;102176.50;4820983;29;45583;-71
2022/12/01 03:25:59;;;;;;;;;34.50;28.00;;;;;10.72;64.62;102178.31;4820965;29;46752;-71
2022/12/01 03:28:31;;;;;;;;;39.00;34.75;;;;;10.67;64.10;102185.63;4820188;29;45585;-71
2022/12/01 03:31:04;;;;;;;;;52.75;38.00;;;;;10.66;64.63;102186.53;4820894;29;45500;-71
2022/12/01 03:33:38;;;;;;;;;38.50;34.75;;;;;10.60;64.69;102187.63;4821012;29;45433;-71
2022/12/01 03:36:14;;;;;;;;;32.25;29.50;;;;;10.42;65.08;102190.03;4820863;29;45599;-70
2022/12/01 03:38:43;;;;;;;;;42.00;35.75;;;;;10.43;65.33;102189.13;4820884;29;45850;-70
2022/12/01 03:41:17;;;;;;;;;43.50;37.75;;;;;10.41;65.51;102185.63;4821112;29;45678;-71
2022/12/01 03:43:51;;;;;;;;;42.00;33.75;;;;;10.16;65.21;102150.03;4853726;29;45540;-70
2022/12/01 03:46:16;;;;;;;;;42.25;38.00;;;;;10.40;65.64;102183.88;4857725;29;46213;-70
2022/12/01 03:48:42;;;;;;;;;46.50;37.75;;;;;10.20;65.77;102187.25;4857986;29;45450;-70
2022/12/01 03:51:31;;;;;;;;;47.25;38.75;;;;;10.16;66.14;102188.25;4857789;29;45567;-71
2022/12/01 03:54:06;;;;;;;;;44.25;35.50;;;;;10.03;66.31;102187.81;4840473;29;45756;-70
2022/12/01 03:56:54;;;;;;;;;43.25;37.50;;;;;10.01;66.35;102178.97;4844915;28;46490;-71
2022/12/01 03:59:22;;;;;;;;;49.00;38.75;;;;;9.82;67.15;102180.53;4934767;28;45651;-71
2022/12/01 04:01:48;;;;;;;;;44.25;38.75;;;;;9.92;66.78;102173.97;4994471;28;45519;-70
2022/12/01 04:04:14;;;;;;;;;36.25;33.75;;;;;9.73;67.29;102179.91;4994287;28;45364;-71
2022/12/01 04:06:43;;;;;;;;;46.75;39.75;;;;;9.81;67.11;102173.44;4993628;28;46254;-70
2022/12/01 04:09:08;;;;;;;;;41.50;37.00;;;;;9.89;67.29;102174.06;4994417;28;45375;-70
2022/12/01 04:14:18;;;;;;;;;39.50;34.25;;;;;9.71;67.38;102164.91;4979957;28;45705;-71
2022/12/01 04:16:43;;;;;;;;;48.75;39.00;;;;;9.62;67.39;102144.75;4974873;28;46045;-71
2022/12/01 04:19:10;;;;;;;;;39.25;35.75;;;;;9.76;67.05;102153.16;4974638;28;45400;-70
2022/12/01 04:21:35;;;;;;;;;42.50;36.50;;;;;10.00;66.76;102171.03;4977481;28;45416;-70
2022/12/01 04:24:00;;;;;;;;;39.75;35.25;;;;;10.05;66.26;102164.59;4970002;28;45406;-71
2022/12/01 04:26:31;;;;;;;;;41.00;34.25;;;;;9.46;66.17;102085.78;4981038;28;45480;-71
2022/12/01 04:28:58;;;;;;;;;46.50;39.50;;;;;9.79;66.47;102169.97;4981273;28;45356;-70
2022/12/01 04:31:23;;;;;;;;;52.75;39.75;;;;;9.79;67.47;102169.97;4974167;28;45344;-71
2022/12/01 04:33:49;;;;;;;;;43.25;36.75;;;;;9.88;66.94;102177.63;4974367;28;45573;-71
2022/12/01 04:36:14;;;;;;;;;33.50;28.25;;;;;9.82;66.66;102173.41;4972728;28;46837;-71
2022/12/01 04:38:40;;;;;;;;;45.75;36.75;;;;;9.43;67.22;102096.53;4974713;28;45440;-71
2022/12/01 04:41:12;;;;;;;;;35.75;31.25;;;;;9.94;66.41;102174.78;4978064;28;45640;-71
2022/12/01 04:43:38;;;;;;;;;43.75;36.00;;;;;9.93;66.37;102178.38;4977511;28;45470;-71
2022/12/01 04:46:04;;;;;;;;;43.75;35.00;;;;;9.89;66.53;102179.41;4977430;28;47182;-71
2022/12/01 04:48:29;;;;;;;;;43.75;35.50;;;;;9.91;66.14;102183.75;4977402;28;45565;-71
2022/12/01 04:50:55;;;;;;;;;46.25;38.00;;;;;9.91;65.97;102173.09;4977403;28;45714;-71
2022/12/01 04:53:20;;;;;;;;;51.00;36.00;;;;;9.95;65.85;102171.19;4977498;28;45419;-71
2022/12/01 04:55:46;;;;;;;;;39.00;35.50;;;;;9.89;66.17;102177.63;4977259;28;46038;-71
2022/12/01 04:58:11;;;;;;;;;44.75;38.75;;;;;9.79;66.42;102177.97;4980580;28;45502;-70
2022/12/01 05:00:36;;;;;;;;;44.25;34.50;;;;;9.83;66.04;102180.47;4986028;28;45420;-71
2022/12/01 05:03:02;;;;;;;;;40.50;35.25;;;;;9.59;66.21;102140.38;4959823;28;45783;-70
2022/12/01 05:05:28;;;;;;;;;43.00;35.50;;;;;9.68;66.68;102167.69;4975589;28;45401;-71
2022/12/01 05:07:54;;;;;;;;;41.25;36.50;;;;;9.62;66.91;102179.38;4976125;28;45425;-71
2022/12/01 05:10:20;;;;;;;;;50.75;37.50;;;;;9.58;66.75;102177.72;4977082;28;45535;-71
2022/12/01 05:12:45;;;;;;;;;37.75;36.75;;;;;9.47;67.08;102179.88;4977339;28;45510;-70
2022/12/01 05:15:11;;;;;;;;;39.50;37.25;;;;;8.84;67.08;102071.78;4981150;28;45967;-71
2022/12/01 05:17:36;;;;;;;;;39.50;31.75;;;;;9.19;68.00;102176.28;4987341;28;45490;-71
2022/12/01 05:22:48;;;;;;;;;44.25;36.75;;;;;9.17;68.30;102179.91;4989614;28;45411;-71
2022/12/01 05:25:13;;;;;;;;;47.75;36.25;;;;;9.11;68.68;102183.66;4996329;28;46131;-71
2022/12/01 05:27:38;;;;;;;;;41.00;36.25;;;;;9.02;68.82;102184.78;4996637;28;45423;-71
2022/12/01 05:30:06;;;;;;;;;47.25;40.50;;;;;8.96;69.05;102187.63;4996976;28;45434;-70
2022/12/01 05:32:31;;;;;;;;;46.75;38.50;;;;;9.01;68.48;102183.03;4990524;28;45637;-70
2022/12/01 05:34:57;;;;;;;;;32.00;28.00;;;;;8.79;68.49;102145.56;4987638;28;47401;-71
2022/12/01 05:37:22;;;;;;;;;37.25;33.00;;;;;8.80;68.61;102141.09;4996539;28;45395;-70
2022/12/01 05:39:47;;;;;;;;;40.50;37.00;;;;;9.10;68.12;102189.88;4995307;28;45606;-70
2022/12/01 05:42:12;;;;;;;;;40.50;29.75;;;;;8.87;69.09;102179.94;4996541;28;45412;-71
2022/12/01 05:44:38;;;;;;;;;38.00;29.25;;;;;8.75;69.04;102189.13;4992925;28;47203;-70
2022/12/01 05:47:03;;;;;;;;;39.00;33.00;;;;;9.02;68.62;102187.44;4986290;28;45720;-70
2022/12/01 05:49:28;;;;;;;;;47.25;36.00;;;;;8.98;68.66;102200.91;4985870;28;45605;-70
2022/12/01 05:51:54;;;;;;;;;41.50;34.50;;;;;8.65;69.00;102169.91;4974474;28;45444;-70
2022/12/01 05:54:19;;;;;;;;;43.25;38.00;;;;;8.85;68.94;102189.72;4976598;28;45462;-70
2022/12/01 05:56:45;;;;;;;;;35.75;32.00;;;;;8.93;68.58;102203.69;4976511;28;45614;-71
2022/12/01 05:59:10;;;;;;;;;45.75;39.00;;;;;8.79;68.80;102192.59;4975242;28;45453;-71
2022/12/01 06:01:35;;;;;;;;;48.25;39.00;;;;;8.82;69.20;102182.69;4975978;28;48104;-70
2022/12/01 06:04:01;;;;;;;;;47.50;40.25;;;;;8.71;68.42;102179.50;4985365;28;46134;-71
2022/12/01 06:06:26;;;;;;;;;48.25;39.00;;;;;8.71;68.94;102183.00;4994643;28;45438;-71
2022/12/01 06:08:51;;;;;;;;;41.00;36.25;;;;;8.64;68.82;102188.53;4991945;28;45407;-71
2022/12/01 06:11:16;;;;;;;;;41.50;27.75;;;;;8.47;69.25;102181.91;4970765;28;45778;-72
2022/12/01 06:13:42;;;;;;;;;38.00;32.50;;;;;8.48;68.93;102185.47;4995885;28;46120;-71
2022/12/01 06:16:08;;;;;;;;;35.75;31.00;;;;;8.58;69.29;102182.50;4992973;28;45662;-70
2022/12/01 06:18:35;;;;;;;;;43.00;39.75;;;;;8.59;68.67;102186.03;4984860;28;45507;-70
2022/12/01 06:21:02;;;;;;;;;32.00;29.25;;;;;8.56;69.57;102179.00;4990689;28;45385;-70
2022/12/01 06:23:28;;;;;;;;;61.25;45.75;;;;;8.55;69.31;102185.22;4995679;28;45543;-70
2022/12/01 06:25:53;;;;;;;;;48.50;39.75;;;;;8.47;69.84;102181.91;4995568;28;45368;-70
2022/12/01 06:28:18;;;;;;;;;39.00;35.25;;;;;8.41;69.35;102179.41;4995903;28;45376;-69
2022/12/01 06:30:44;;;;;;;;;43.00;35.50;;;;;8.45;69.50;102180.16;4995479;28;45397;-70
2022/12/01 06:33:09;;;;;;;;;48.00;38.00;;;;;8.36;69.50;102183.97;4995315;28;45498;-70
2022/12/01 06:35:35;;;;;;;;;36.25;31.75;;;;;8.48;69.36;102190.78;4978001;28;46073;-70
2022/12/01 06:38:01;;;;;;;;;49.25;39.25;;;;;8.42;69.31;102194.41;4995780;28;45787;-70
2022/12/01 06:40:26;;;;;;;;;58.75;41.50;;;;;8.14;69.54;102155.31;4995687;28;45449;-70
2022/12/01 06:42:52;;;;;;;;;46.00;35.00;;;;;8.38;68.96;102191.00;4995496;28;45463;-70
2022/12/01 06:45:17;;;;;;;;;39.50;35.75;;;;;8.34;69.13;102186.69;4995371;28;45410;-70
2022/12/01 06:47:42;;;;;;;;;43.75;36.00;;;;;8.29;69.15;102196.56;4995512;28;45379;-70
2022/12/01 06:50:09;;;;;;;;;45.25;37.25;;;;;8.39;68.76;102197.16;4995634;28;45679;-70
2022/12/01 06:52:35;;;;;;;;;56.75;39.75;;;;;8.42;69.32;102181.13;4995174;28;45663;-70
2022/12/01 06:55:02;;;;;;;;;38.75;35.25;;;;;8.47;69.02;102173.94;4995133;28;45600;-70
2022/12/01 06:57:28;;;;;;;;;44.75;36.50;;;;;8.11;68.75;102138.56;4995497;28;45443;-70
2022/12/01 06:59:54;;;;;;;;;37.75;29.00;;;;;8.28;68.85;102213.41;4995254;28;45589;-70
2022/12/01 07:02:19;;;;;;;;;40.00;32.50;;;;;7.93;68.41;102132.81;4995089;28;46064;-70
2022/12/01 07:04:44;;;;;;;;;44.50;37.25;;;;;8.52;68.70;102214.56;4995195;28;45415;-70
2022/12/01 07:07:11;;;;;;;;;55.00;41.00;;;;;8.46;68.87;102220.03;4995392;28;45494;-70
2022/12/01 07:09:36;;;;;;;;;27.50;23.75;;;;;8.54;68.74;102217.19;4995494;28;45366;-70
2022/12/01 07:12:01;;;;;;;;;40.75;35.50;;;;;8.65;68.70;102228.44;4994259;28;45444;-70
2022/12/01 07:14:27;;;;;;;;;51.25;40.50;;;;;8.87;68.23;102228.69;4993401;28;45532;-70
2022/12/01 07:16:52;;;;;;;;;49.25;39.25;;;;;8.82;67.58;102235.91;4995121;28;45984;-70
2022/12/01 07:19:18;;;;;;;;;42.25;37.75;;;;;8.64;68.49;102234.66;4994769;28;45376;-70
2022/12/01 07:21:44;;;;;;;;;48.50;39.25;;;;;8.32;69.53;102233.69;4992001;28;45549;-70
2022/12/01 07:24:11;;;;;;;;;32.25;30.00;;;;;8.46;69.19;102229.81;4993301;28;45604;-70
2022/12/01 07:26:37;;;;;;;;;26.50;24.25;;;;;8.23;68.75;102194.94;4994889;28;45520;-70
2022/12/01 07:29:02;;;;;;;;;33.00;30.25;;;;;8.71;68.28;102246.88;4976651;28;45468;-69
2022/12/01 07:31:27;;;;;;;;;48.25;37.00;;;;;8.74;67.50;102252.09;4994460;28;46767;-70
2022/12/01 07:33:53;;;;;;;;;42.75;36.75;;;;;8.78;67.57;102247.56;4994569;28;45375;-70
2022/12/01 07:36:18;;;;;;;;;41.00;37.00;;;;;8.84;68.07;102246.53;4994641;28;45436;-71
2022/12/01 07:38:43;;;;;;;;;33.75;31.50;;;;;8.86;67.55;102240.25;4976643;28;45488;-71
2022/12/01 07:41:11;;;;;;;;;39.25;36.50;;;;;8.91;67.53;102248.97;4994270;28;46685;-71
2022/12/01 07:43:37;;;;;;;;;52.00;39.50;;;;;8.85;67.62;102264.25;4994440;28;45411;-71
2022/12/01 07:46:11;;;;;;;;;42.75;38.00;;;;;8.92;67.55;102255.16;4994559;28;45451;-70
2022/12/01 07:48:37;;;;;;;;;37.25;32.25;;;;;9.11;67.60;102266.19;4994371;28;45688;-71
2022/12/01 07:51:08;;;;;;;;;46.25;35.75;;;;;9.29;66.33;102264.75;4993815;28;45834;-70
2022/12/01 07:53:34;;;;;;;;;41.75;37.75;;;;;8.95;66.76;102268.41;4994232;28;45445;-71
2022/12/01 07:56:00;;;;;;;;;37.50;31.00;;;;;8.87;67.40;102276.59;4994682;28;45515;-68
2022/12/01 07:58:26;;;;;;;;;44.25;35.75;;;;;9.08;67.22;102280.44;4993577;28;45535;-71
2022/12/01 08:00:52;;;;;;;;;38.75;34.00;;;;;9.23;67.24;102283.56;4993996;28;47474;-70
2022/12/01 08:03:18;;;;;;;;;39.25;35.75;;;;;9.22;66.22;102257.88;4994087;28;45459;-71
2022/12/01 08:05:44;;;;;;;;;40.00;33.75;;;;;9.40;65.84;102289.25;4994309;28;45426;-71
2022/12/01 08:08:10;;;;;;;;;46.50;37.50;;;;;9.29;66.44;102296.72;4994310;28;45411;-71
2022/12/01 08:10:36;;;;;;;;;38.75;34.50;;;;;9.18;66.53;102304.16;4994274;28;46293;-70
2022/12/01 08:13:01;;;;;;;;;37.75;34.25;;;;;9.05;66.78;102291.16;4993517;28;45433;-70
2022/12/01 08:15:27;;;;;;;;;41.00;38.25;;;;;9.13;66.59;102295.41;4993976;28;45563;-71
2022/12/01 08:17:52;;;;;;;;;35.00;30.25;;;;;9.28;66.57;102305.63;4994354;28;45391;-71
2022/12/01 08:20:17;;;;;;;;;36.00;32.00;;;;;9.46;66.46;102303.31;4994122;28;46294;-71
2022/12/01 08:22:43;;;;;;;;;34.25;28.00;;;;;9.52;66.05;102300.50;4993981;28;45442;-70
2022/12/01 08:25:08;;;;;;;;;30.25;28.75;;;;;9.35;65.48;102312.53;4993977;28;45363;-70
2022/12/01 08:27:34;;;;;;;;;36.75;33.50;;;;;9.16;66.21;102303.31;4994047;28;45403;-70
2022/12/01 08:30:00;;;;;;;;;37.75;33.75;;;;;8.98;66.38;102244.34;4976614;28;46176;-71
2022/12/01 08:32:25;;;;;;;;;40.50;30.75;;;;;9.40;65.73;102299.06;4993996;28;45491;-70
2022/12/01 08:34:51;;;;;;;;;29.25;24.50;;;;;9.49;65.72;102305.88;4994990;28;45707;-70
2022/12/01 08:37:16;;;;;;;;;35.50;32.50;;;;;9.37;65.76;102305.34;4994193;28;45527;-71
2022/12/01 08:39:42;;;;;;;;;39.50;34.75;;;;;9.13;66.38;102308.72;4993917;28;46245;-71
2022/12/01 08:42:07;;;;;;;;;36.25;35.50;;;;;9.06;66.76;102303.56;4993873;28;45488;-70
2022/12/01 08:44:32;;;;;;;;;34.25;27.25;;;;;9.31;66.91;102300.19;4960389;28;45772;-71
2022/12/01 08:46:57;;;;;;;;;37.25;31.25;;;;;9.31;66.38;102305.50;4993748;28;45547;-71
2022/12/01 08:49:23;;;;;;;;;32.75;31.50;;;;;9.51;65.99;102302.25;4993692;28;47186;-71
2022/12/01 08:51:48;;;;;;;;;33.00;30.50;;;;;9.57;66.31;102306.56;4993672;28;45505;-71
2022/12/01 08:54:14;;;;;;;;;31.25;25.75;;;;;9.65;65.53;102307.19;4993985;28;45434;-71
2022/12/01 08:56:42;;;;;;;;;37.00;34.25;;;;;9.48;66.07;102302.38;4993870;28;45609;-71
2022/12/01 08:59:08;;;;;;;;;33.75;30.00;;;;;9.53;65.93;102310.25;4993784;28;45703;-71
2022/12/01 09:01:34;;;;;;;;;40.50;33.75;;;;;9.56;65.76;102315.47;4993748;28;45447;-71
2022/12/01 09:04:09;;;;;;;;;37.50;29.50;;;;;9.45;66.08;102302.47;4993658;28;45392;-70
2022/12/01 09:06:45;;;;;;;;;35.00;27.75;;;;;9.65;65.78;102319.63;4993412;28;45355;-71
2022/12/01 09:09:17;;;;;;;;;35.75;32.75;;;;;9.56;65.76;102318.13;4975581;28;46240;-71
2022/12/01 09:11:44;;;;;;;;;38.75;29.25;;;;;9.51;65.85;102309.41;4993249;28;45413;-71
2022/12/01 09:14:11;;;;;;;;;31.75;28.75;;;;;9.64;65.92;102302.78;4993162;28;45419;-71
2022/12/01 09:16:36;;;;;;;;;31.50;25.50;;;;;9.12;65.78;102248.41;4975857;28;45797;-71
2022/12/01 09:19:02;;;;;;;;;25.00;21.00;;;;;9.23;66.39;102302.19;4993609;28;46077;-71
2022/12/01 09:21:31;;;;;;;;;33.50;27.50;;;;;9.46;66.24;102306.88;4993716;28;45422;-71
2022/12/01 09:23:57;;;;;;;;;42.00;32.00;;;;;9.78;65.52;102305.00;4993405;28;45364;-71
2022/12/01 09:26:22;;;;;;;;;29.00;25.50;;;;;9.89;64.71;102308.22;4994438;28;45476;-71
2022/12/01 09:28:51;;;;;;;;;32.00;31.00;;;;;9.93;64.81;102309.88;4996960;28;45312;-70
2022/12/01 09:31:18;;;;;;;;;28.00;24.25;;;;;9.86;64.99;102313.63;4996977;28;45465;-71
2022/12/01 09:33:43;;;;;;;;;37.00;29.75;;;;;9.93;64.52;102314.31;4996654;28;45500;-71
2022/12/01 09:36:10;;;;;;;;;31.50;27.50;;;;;9.89;64.99;102318.91;4996793;28;45391;-72
2022/12/01 09:38:37;;;;;;;;;42.25;36.00;;;;;10.06;64.20;102305.00;4996731;28;47240;-71
2022/12/01 09:41:20;;;;;;;;;33.00;28.25;;;;;10.17;64.14;102317.13;4996265;28;45537;-71
2022/12/01 09:44:09;;;;;;;;;34.00;31.25;;;;;10.21;63.86;102313.44;4996523;28;45911;-70
2022/12/01 09:46:43;;;;;;;;;26.25;25.25;;;;;10.19;63.47;102318.84;4979550;28;45368;-71
2022/12/01 09:49:17;;;;;;;;;31.25;26.25;;;;;10.01;64.22;102311.41;4996236;28;45614;-71
2022/12/01 09:51:43;;;;;;;;;31.50;30.00;;;;;9.93;64.67;102309.88;4995738;28;45403;-71
2022/12/01 09:54:12;;;;;;;;;26.00;25.75;;;;;9.90;64.98;102288.63;4996057;28;45454;-71
2022/12/01 09:56:45;;;;;;;;;25.50;20.00;;;;;10.00;64.40;102307.00;4996326;28;45526;-70
2022/12/01 09:59:22;;;;;;;;;29.50;23.75;;;;;9.37;64.27;102243.22;4996169;28;45653;-70
2022/12/01 10:01:53;;;;;;;;;28.00;21.25;;;;;9.67;65.16;102305.34;4996037;28;45484;-69
2022/12/01 10:04:25;;;;;;;;;22.75;21.75;;;;;9.76;64.99;102306.88;4996140;28;45328;-70
2022/12/01 10:07:11;;;;;;;;;33.25;28.50;;;;;9.72;65.12;102313.22;4978394;28;45403;-69
2022/12/01 10:09:50;;;;;;;;;32.00;27.75;;;;;9.79;65.14;102316.56;4995608;28;47411;-69
2022/12/01 10:12:18;;;;;;;;;30.75;26.75;;;;;9.89;64.63;102307.34;4996187;28;45409;-69
2022/12/01 10:14:45;;;;;;;;;27.50;24.75;;;;;9.69;64.48;102295.53;4996213;28;45410;-69
2022/12/01 10:17:29;;;;;;;;;32.25;23.25;;;;;10.12;64.51;102303.94;4996238;28;45613;-69
2022/12/01 10:20:23;;;;;;;;;26.25;26.00;;;;;10.07;64.14;102303.22;4996185;28;45413;-69
2022/12/01 10:23:35;;;;;;;;;25.25;21.25;;;;;10.03;64.08;102304.25;4978200;28;45821;-69
2022/12/01 10:26:13;;;;;;;;;28.50;25.00;;;;;10.11;63.75;102307.53;4996573;28;45382;-70
2022/12/01 10:28:56;;;;;;;;;31.25;28.25;;;;;10.19;63.58;102296.59;4995907;28;45838;-70
2022/12/01 10:31:29;;;;;;;;;25.00;23.75;;;;;10.49;62.29;102296.56;4995504;28;46228;-69
2022/12/01 10:34:10;;;;;;;;;33.25;28.00;;;;;10.47;62.29;102293.06;4995611;28;45416;-70
2022/12/01 10:36:35;;;;;;;;;24.75;23.75;;;;;10.34;62.99;102298.78;4995206;28;45467;-69
2022/12/01 10:39:03;;;;;;;;;29.50;23.75;;;;;10.42;63.08;102299.41;4995074;28;45511;-70
2022/12/01 10:41:33;;;;;;;;;27.50;26.50;;;;;10.58;62.79;102291.75;4995507;28;47246;-70
2022/12/01 10:44:01;;;;;;;;;34.00;29.00;;;;;10.79;63.77;102285.72;4995473;28;45447;-70
2022/12/01 10:46:42;;;;;;;;;30.25;26.50;;;;;10.92;62.53;102285.22;4995258;28;45507;-70
2022/12/01 10:49:10;;;;;;;;;34.00;30.00;;;;;10.36;62.70;102288.94;4995315;28;45406;-70
2022/12/01 10:51:57;;;;;;;;;28.75;26.25;;;;;10.51;63.31;102290.22;4994807;28;45713;-70
2022/12/01 10:54:40;;;;;;;;;25.50;24.00;;;;;10.71;63.03;102283.31;4995150;28;45462;-70
2022/12/01 10:57:13;;;;;;;;;34.50;28.25;;;;;10.82;62.88;102285.63;4995370;28;45712;-70
2022/12/01 10:59:53;;;;;;;;;27.25;24.75;;;;;10.96;61.81;102279.75;4977471;28;45507;-70
2022/12/01 11:02:22;;;;;;;;;31.50;24.50;;;;;10.96;62.39;102269.97;4995061;28;46232;-70
2022/12/01 11:05:03;;;;;;;;;34.25;27.75;;;;;11.12;62.29;102275.63;4994809;28;45507;-70
2022/12/01 11:07:49;;;;;;;;;33.25;26.75;;;;;11.14;61.78;102276.41;4994923;28;45456;-70
2022/12/01 11:10:31;;;;;;;;;24.25;20.75;;;;;11.05;61.08;102252.72;4994433;28;45472;-71
2022/12/01 11:13:19;;;;;;;;;28.75;23.75;;;;;11.21;61.35;102259.22;4994806;28;46082;-70
2022/12/01 11:15:54;;;;;;;;;16.25;15.00;;;;;11.17;59.83;102278.97;4978398;28;45432;-70
2022/12/01 11:18:22;;;;;;;;;23.25;17.00;;;;;11.00;60.04;102270.72;4994980;28;45560;-70
2022/12/01 11:21:02;;;;;;;;;22.00;19.75;;;;;11.15;60.89;102266.59;4994807;28;45545;-70
2022/12/01 11:23:28;;;;;;;;;17.00;16.00;;;;;10.99;60.32;102256.50;4994787;28;45347;-71
2022/12/01 11:25:59;;;;;;;;;29.25;27.00;;;;;11.14;59.96;102272.91;4976934;28;45481;-70
2022/12/01 11:28:24;;;;;;;;;29.00;25.50;;;;;11.02;60.50;102256.38;4994929;28;45478;-70
2022/12/01 11:31:03;;;;;;;;;23.00;20.75;;;;;11.11;59.50;102269.41;4976790;28;45490;-71
2022/12/01 11:33:32;;;;;;;;;29.50;27.00;;;;;11.05;59.82;102260.75;4994597;28;47552;-70
2022/12/01 11:35:58;;;;;;;;;21.25;18.50;;;;;10.96;60.44;102264.63;4994476;28;45501;-70